Time;durP1;ratioP1;P1;durP2;ratioP2;P2;SDS_P1;SDS_P2;PMS_P1;PMS_P2;Temp;Humidity;BMP_temperature;BMP_pressure;BME280_temperature;BME280_humidity;BME280_pressure;Samples;Min_cycle;Max_cycle;Signal;HPM_P1;HPM_P2
2022/08/03 00:01:35;;;;;;;0.93;0.50;;;25.50;64.80;;;;;;5075042;28;20033;-76
2022/08/03 00:04:04;;;;;;;2.80;0.40;;;25.50;64.70;;;;;;5051544;28;20491;-77
2022/08/03 00:06:29;;;;;;;1.50;0.45;;;25.50;64.70;;;;;;5051448;28;20048;-76
2022/08/03 00:08:55;;;;;;;1.33;0.30;;;25.50;64.70;;;;;;5051327;28;20471;-76
2022/08/03 00:11:21;;;;;;;1.38;0.65;;;25.50;64.80;;;;;;5051059;28;20379;-76
2022/08/03 00:13:46;;;;;;;2.22;0.65;;;25.50;64.80;;;;;;5050900;28;20025;-76
2022/08/03 00:16:13;;;;;;;0.95;0.43;;;25.50;64.80;;;;;;5050905;28;20398;-76
2022/08/03 00:18:39;;;;;;;1.65;0.40;;;25.50;65.00;;;;;;5037100;28;20040;-76
2022/08/03 00:21:07;;;;;;;1.15;0.40;;;25.50;64.90;;;;;;5030935;28;20067;-76
2022/08/03 00:23:34;;;;;;;1.95;0.40;;;25.50;65.00;;;;;;5030868;28;20076;-76
2022/08/03 00:26:01;;;;;;;1.15;0.40;;;25.50;65.10;;;;;;5014764;28;20044;-76
2022/08/03 00:28:27;;;;;;;1.45;0.45;;;25.50;65.00;;;;;;5034230;28;20049;-76
2022/08/03 00:30:52;;;;;;;1.10;0.45;;;25.50;65.00;;;;;;5034838;28;20467;-77
2022/08/03 00:33:18;;;;;;;1.33;0.50;;;25.50;65.00;;;;;;5035034;28;20419;-77
2022/08/03 00:35:44;;;;;;;2.17;0.65;;;25.50;65.20;;;;;;5018145;28;20104;-77
2022/08/03 00:38:09;;;;;;;1.95;0.40;;;25.50;65.10;;;;;;5034989;28;20021;-77
2022/08/03 00:40:35;;;;;;;3.38;0.47;;;25.50;65.00;;;;;;5034717;28;20030;-77
2022/08/03 00:43:04;;;;;;;1.15;0.30;;;25.50;65.10;;;;;;5035745;28;20036;-77
2022/08/03 00:45:34;;;;;;;1.23;0.47;;;25.50;65.10;;;;;;5034662;28;20025;-77
2022/08/03 00:48:00;;;;;;;1.55;0.45;;;25.50;65.10;;;;;;5034010;28;20021;-77
2022/08/03 00:50:28;;;;;;;2.20;0.40;;;25.50;65.20;;;;;;5034310;28;20109;-77
2022/08/03 00:52:57;;;;;;;1.80;0.47;;;25.50;65.20;;;;;;5033918;28;20096;-76
2022/08/03 00:55:23;;;;;;;3.92;0.43;;;25.50;65.20;;;;;;5017893;28;20021;-76
2022/08/03 00:57:49;;;;;;;0.70;0.40;;;25.50;65.30;;;;;;5034158;28;20021;-76
2022/08/03 01:00:17;;;;;;;2.65;0.43;;;25.50;65.30;;;;;;5035619;28;20075;-76
2022/08/03 01:02:43;;;;;;;0.55;0.50;;;25.50;65.30;;;;;;5034169;28;20025;-76
2022/08/03 01:05:09;;;;;;;1.60;0.40;;;25.50;65.30;;;;;;5033856;28;20033;-76
2022/08/03 01:07:41;;;;;;;1.33;0.47;;;25.50;65.30;;;;;;5034120;28;20159;-76
2022/08/03 01:10:36;;;;;;;5.57;0.50;;;25.50;65.30;;;;;;5035363;28;20022;-76
2022/08/03 01:13:15;;;;;;;1.38;0.50;;;25.50;65.20;;;;;;5018089;28;20109;-76
2022/08/03 01:16:11;;;;;;;1.40;0.45;;;25.50;65.30;;;;;;5034748;28;20426;-76
2022/08/03 01:18:51;;;;;;;0.75;0.47;;;25.50;65.20;;;;;;5026382;28;20037;-76
2022/08/03 01:21:27;;;;;;;1.55;0.63;;;25.50;65.30;;;;;;5033941;28;20116;-76
2022/08/03 01:24:04;;;;;;;4.10;0.60;;;25.50;65.30;;;;;;5033689;28;20045;-76
2022/08/03 01:26:52;;;;;;;0.32;0.30;;;25.50;65.30;;;;;;5033735;28;20452;-76
2022/08/03 01:29:51;;;;;;;0.30;0.20;;;25.50;65.30;;;;;;5033564;28;20404;-76
2022/08/03 01:32:27;;;;;;;0.65;0.40;;;25.50;65.30;;;;;;5033846;28;20021;-76
2022/08/03 01:35:03;;;;;;;1.08;0.43;;;25.50;65.30;;;;;;5033282;28;20022;-76
2022/08/03 01:37:38;;;;;;;0.60;0.40;;;25.50;65.30;;;;;;5033776;28;20021;-76
2022/08/03 01:40:05;;;;;;;8.18;0.55;;;25.50;65.30;;;;;;5033318;28;20105;-76
2022/08/03 01:42:31;;;;;;;0.40;0.32;;;25.50;65.30;;;;;;5033198;28;20018;-76
2022/08/03 01:44:56;;;;;;;2.13;0.45;;;25.50;65.30;;;;;;5033172;28;20028;-76
2022/08/03 01:47:24;;;;;;;0.88;0.43;;;25.50;65.30;;;;;;5033036;28;20029;-76
2022/08/03 01:49:51;;;;;;;0.68;0.40;;;25.50;65.30;;;;;;5032970;28;20060;-76
2022/08/03 01:52:17;;;;;;;2.65;0.55;;;25.50;65.30;;;;;;5049830;28;20026;-76
2022/08/03 01:54:44;;;;;;;0.43;0.40;;;25.50;65.20;;;;;;5033233;28;20024;-76
2022/08/03 01:57:12;;;;;;;0.52;0.40;;;25.50;65.30;;;;;;5032862;28;20049;-76
2022/08/03 01:59:38;;;;;;;0.40;0.40;;;25.50;65.30;;;;;;5049583;28;20048;-76
2022/08/03 02:02:04;;;;;;;0.85;0.50;;;25.50;65.30;;;;;;5032691;28;20388;-76
2022/08/03 02:04:29;;;;;;;1.40;0.50;;;25.50;65.30;;;;;;5033030;28;20049;-76
2022/08/03 02:06:56;;;;;;;2.42;0.60;;;25.50;65.30;;;;;;5032991;28;20201;-76
2022/08/03 02:09:22;;;;;;;0.75;0.50;;;25.50;65.30;;;;;;5032455;28;20056;-77
2022/08/03 02:11:50;;;;;;;0.77;0.60;;;25.50;65.30;;;;;;5032526;28;20105;-77
2022/08/03 02:14:17;;;;;;;1.25;0.60;;;25.50;65.30;;;;;;5032527;28;20022;-77
2022/08/03 02:16:44;;;;;;;0.75;0.50;;;25.50;65.30;;;;;;5032733;28;20025;-76
2022/08/03 02:19:11;;;;;;;0.80;0.40;;;25.50;65.30;;;;;;5013916;28;20033;-77
2022/08/03 02:21:38;;;;;;;0.40;0.40;;;25.50;65.30;;;;;;5012686;28;20014;-76
2022/08/03 02:24:04;;;;;;;0.85;0.40;;;25.50;65.30;;;;;;4996387;28;20591;-76
2022/08/03 02:26:35;;;;;;;0.50;0.40;;;25.50;65.30;;;;;;5012646;28;20026;-76
2022/08/03 02:29:07;;;;;;;1.23;0.40;;;25.50;65.30;;;;;;5012144;28;20132;-76
2022/08/03 02:31:33;;;;;;;;;;;25.50;65.30;;;;;;5013180;28;20026;-76
2022/08/03 02:34:04;;;;;;;0.52;0.38;;;25.50;65.20;;;;;;5045328;28;19984;-76
2022/08/03 02:36:34;;;;;;;0.82;0.52;;;25.50;65.30;;;;;;4996724;28;20046;-76
2022/08/03 02:38:59;;;;;;;0.30;0.30;;;25.50;65.30;;;;;;5012813;28;20028;-77
2022/08/03 02:41:33;;;;;;;2.25;0.30;;;25.50;65.30;;;;;;5012465;28;20022;-76
2022/08/03 02:44:02;;;;;;;0.32;0.32;;;25.50;65.30;;;;;;4996193;28;20026;-76
2022/08/03 02:46:31;;;;;;;4.13;0.50;;;25.50;65.30;;;;;;5012442;28;20026;-76
2022/08/03 02:49:01;;;;;;;0.50;0.38;;;25.50;65.30;;;;;;5012025;28;20037;-76
2022/08/03 02:51:28;;;;;;;1.02;0.52;;;25.50;65.30;;;;;;5012847;28;20022;-76
2022/08/03 02:53:56;;;;;;;0.65;0.30;;;25.50;65.30;;;;;;5011787;28;20060;-76
2022/08/03 02:56:27;;;;;;;0.32;0.32;;;25.50;65.30;;;;;;5011449;28;20069;-76
2022/08/03 02:58:55;;;;;;;0.57;0.40;;;25.50;65.40;;;;;;5012149;28;20022;-76
2022/08/03 03:01:23;;;;;;;0.85;0.50;;;25.50;65.40;;;;;;5004299;28;20029;-76
2022/08/03 03:03:57;;;;;;;1.77;0.40;;;25.50;65.30;;;;;;5031501;28;20029;-77
2022/08/03 03:06:24;;;;;;;0.70;0.30;;;25.50;65.40;;;;;;5031969;28;20045;-76
2022/08/03 03:08:50;;;;;;;1.83;0.28;;;25.50;65.50;;;;;;5031839;28;20044;-76
2022/08/03 03:11:16;;;;;;;1.10;0.30;;;25.50;65.40;;;;;;5032186;28;20447;-76
2022/08/03 03:13:43;;;;;;;0.50;0.30;;;25.50;65.30;;;;;;5031893;28;20034;-76
2022/08/03 03:16:08;;;;;;;0.25;0.20;;;25.50;65.40;;;;;;5032196;28;20380;-76
2022/08/03 03:18:34;;;;;;;1.17;0.47;;;25.50;65.30;;;;;;5018104;28;20076;-76
2022/08/03 03:21:00;;;;;;;0.47;0.30;;;25.50;65.40;;;;;;5012281;28;20026;-76
2022/08/03 03:23:30;;;;;;;0.52;0.32;;;25.40;65.30;;;;;;5011800;28;20025;-76
2022/08/03 03:25:57;;;;;;;0.40;0.30;;;25.50;65.30;;;;;;5013264;28;20030;-76
2022/08/03 03:28:23;;;;;;;0.75;0.50;;;25.40;65.30;;;;;;5012120;28;20508;-76
2022/08/03 03:30:49;;;;;;;0.52;0.30;;;25.40;65.30;;;;;;5012036;28;20044;-76
2022/08/03 03:33:14;;;;;;;2.10;0.50;;;25.40;65.20;;;;;;5011766;28;20037;-76
2022/08/03 03:35:41;;;;;;;1.15;0.45;;;25.50;65.30;;;;;;5012007;28;20034;-76
2022/08/03 03:38:07;;;;;;;0.30;0.30;;;25.40;65.20;;;;;;5011816;28;20488;-76
2022/08/03 03:40:39;;;;;;;1.55;0.30;;;25.40;65.20;;;;;;5013075;28;20018;-76
2022/08/03 03:43:09;;;;;;;0.60;0.40;;;25.40;65.20;;;;;;5011393;28;20053;-76
2022/08/03 03:45:35;;;;;;;0.45;0.30;;;25.40;65.30;;;;;;5011685;28;20033;-76
2022/08/03 03:48:02;;;;;;;1.10;0.38;;;25.40;65.30;;;;;;5013042;28;20046;-76
2022/08/03 03:50:30;;;;;;;0.82;0.32;;;25.40;65.20;;;;;;5012998;28;20060;-76
2022/08/03 03:52:55;;;;;;;0.77;0.30;;;25.40;65.30;;;;;;5011840;28;20030;-76
2022/08/03 03:55:21;;;;;;;0.70;0.32;;;25.40;65.20;;;;;;5011553;28;20025;-76
2022/08/03 03:57:47;;;;;;;0.77;0.30;;;25.40;65.20;;;;;;5011452;28;20102;-76
2022/08/03 04:00:13;;;;;;;0.25;0.22;;;25.40;65.30;;;;;;5012862;28;20396;-76
2022/08/03 04:02:39;;;;;;;1.45;0.25;;;25.40;65.40;;;;;;5034833;28;20052;-77
2022/08/03 04:11:09;;;;;;;0.40;0.40;;;25.40;65.70;;;;;;5035723;28;20115;-76
2022/08/03 04:13:37;;;;;;;1.60;0.43;;;25.40;65.50;;;;;;5035324;28;20028;-76
2022/08/03 04:16:03;;;;;;;0.52;0.43;;;25.40;65.60;;;;;;5035122;28;20471;-76
2022/08/03 04:18:30;;;;;;;0.73;0.38;;;25.40;65.70;;;;;;5021827;28;20026;-76
2022/08/03 04:20:56;;;;;;;2.30;0.40;;;25.40;65.80;;;;;;5015209;28;20029;-76
2022/08/03 04:23:22;;;;;;;0.65;0.30;;;25.40;65.70;;;;;;5015387;28;20030;-76
2022/08/03 04:25:48;;;;;;;0.43;0.30;;;25.40;66.70;;;;;;5015131;28;20026;-76
2022/08/03 04:28:14;;;;;;;2.80;0.40;;;25.40;65.80;;;;;;5015173;28;20065;-77
2022/08/03 04:30:46;;;;;;;2.97;0.40;;;25.40;65.80;;;;;;5015251;28;20021;-76
2022/08/03 04:33:11;;;;;;;;;;;25.40;65.80;;;;;;5015371;28;20026;-77
2022/08/03 04:35:37;;;;;;;1.35;0.38;;;25.40;65.60;;;;;;5048045;28;19996;-76
2022/08/03 04:38:05;;;;;;;0.88;0.22;;;25.40;65.70;;;;;;5016279;28;20050;-76
2022/08/03 04:40:33;;;;;;;1.88;0.30;;;25.40;65.70;;;;;;5014941;28;20030;-76
2022/08/03 04:42:58;;;;;;;0.38;0.20;;;25.40;65.70;;;;;;5015122;28;20014;-76
2022/08/03 04:45:24;;;;;;;0.40;0.10;;;25.40;65.70;;;;;;5014894;28;20374;-76
2022/08/03 04:47:50;;;;;;;0.40;0.28;;;25.40;65.80;;;;;;5016028;28;20520;-76
2022/08/03 04:50:15;;;;;;;1.90;0.40;;;25.40;65.80;;;;;;5014473;28;20101;-76
2022/08/03 04:52:41;;;;;;;0.40;0.30;;;25.40;65.80;;;;;;5014943;28;20419;-76
2022/08/03 04:55:07;;;;;;;0.98;0.30;;;25.40;65.90;;;;;;5014762;28;20088;-75
2022/08/03 04:57:33;;;;;;;1.63;0.30;;;25.40;65.80;;;;;;5014598;28;20455;-76
2022/08/03 04:59:58;;;;;;;6.53;0.50;;;25.40;65.80;;;;;;5015901;28;20058;-75
2022/08/03 05:02:25;;;;;;;1.20;0.30;;;25.40;65.90;;;;;;5032453;28;20365;-76
2022/08/03 05:04:50;;;;;;;0.77;0.40;;;25.40;65.80;;;;;;5034271;28;20037;-77
2022/08/03 05:07:16;;;;;;;3.28;0.32;;;25.40;66.00;;;;;;5035314;28;20376;-76
2022/08/03 05:09:42;;;;;;;0.75;0.35;;;25.40;66.00;;;;;;5034319;28;20037;-75
2022/08/03 05:12:08;;;;;;;1.13;0.32;;;25.40;66.00;;;;;;5035042;28;20107;-75
2022/08/03 05:14:36;;;;;;;0.43;0.25;;;25.40;66.00;;;;;;5033889;28;20121;-76
2022/08/03 05:17:02;;;;;;;2.10;0.20;;;25.40;66.00;;;;;;5017819;28;20022;-76
2022/08/03 05:19:28;;;;;;;1.20;0.40;;;25.40;66.00;;;;;;5033818;28;20021;-75
2022/08/03 05:21:53;;;;;;;0.73;0.30;;;25.40;66.00;;;;;;5034113;28;20018;-76
2022/08/03 05:24:19;;;;;;;3.95;0.30;;;25.40;66.00;;;;;;5035197;28;20033;-76
2022/08/03 05:26:45;;;;;;;0.40;0.20;;;25.40;66.00;;;;;;5034964;28;20105;-75
2022/08/03 05:29:10;;;;;;;0.70;0.20;;;25.40;66.00;;;;;;5034956;28;20504;-76
2022/08/03 05:31:36;;;;;;;3.15;0.38;;;25.40;66.00;;;;;;5033701;28;20029;-76
2022/08/03 05:34:02;;;;;;;0.93;0.40;;;25.40;65.90;;;;;;5034821;28;20044;-76
2022/08/03 05:36:27;;;;;;;0.40;0.22;;;25.40;65.90;;;;;;5034780;28;20104;-76
2022/08/03 05:38:53;;;;;;;0.38;0.30;;;25.40;65.90;;;;;;5034912;28;20033;-76
2022/08/03 05:41:18;;;;;;;0.40;0.30;;;25.40;65.90;;;;;;5034869;28;20022;-76
2022/08/03 05:43:44;;;;;;;0.77;0.30;;;25.40;65.90;;;;;;5033640;28;20030;-77
2022/08/03 05:46:10;;;;;;;1.65;0.20;;;25.40;66.00;;;;;;5034301;28;20025;-76
2022/08/03 05:48:35;;;;;;;1.00;0.30;;;25.40;66.00;;;;;;5034381;28;20025;-76
2022/08/03 05:51:01;;;;;;;2.70;0.20;;;25.40;65.90;;;;;;5034682;28;20037;-76
2022/08/03 05:53:27;;;;;;;1.00;0.25;;;25.40;65.90;;;;;;5033400;28;20057;-76
2022/08/03 05:55:54;;;;;;;2.60;0.40;;;25.40;65.90;;;;;;5033371;28;20084;-76
2022/08/03 05:58:20;;;;;;;5.72;0.40;;;25.40;65.90;;;;;;5032998;28;20104;-78
2022/08/03 06:00:45;;;;;;;0.45;0.28;;;25.40;65.90;;;;;;5034233;28;20048;-77
2022/08/03 06:03:11;;;;;;;1.55;0.40;;;25.40;65.20;;;;;;5033886;28;20108;-76
2022/08/03 06:05:37;;;;;;;0.35;0.10;;;25.40;63.90;;;;;;5033842;28;20030;-76
2022/08/03 06:08:03;;;;;;;0.95;0.22;;;25.30;63.30;;;;;;5040163;28;20025;-77
2022/08/03 06:10:29;;;;;;;0.35;0.10;;;25.30;63.00;;;;;;5051778;28;20021;-77
2022/08/03 06:12:54;;;;;;;2.20;0.50;;;25.30;62.90;;;;;;5050518;28;20449;-77
2022/08/03 06:15:20;;;;;;;0.85;0.30;;;25.30;62.90;;;;;;5051874;28;20021;-77
2022/08/03 06:17:49;;;;;;;0.65;0.20;;;25.30;62.90;;;;;;5044733;28;20043;-77
2022/08/03 06:20:18;;;;;;;0.93;0.28;;;25.20;63.00;;;;;;5063959;28;20495;-76
2022/08/03 06:22:45;;;;;;;2.15;0.20;;;25.20;63.00;;;;;;5064220;28;20096;-76
2022/08/03 06:25:10;;;;;;;1.88;0.52;;;25.20;63.00;;;;;;5031282;28;20510;-75
2022/08/03 06:27:38;;;;;;;21.08;4.82;;;25.20;62.90;;;;;;5063305;28;20028;-75
2022/08/03 06:30:05;;;;;;;24.13;5.25;;;25.20;63.20;;;;;;5046636;28;20072;-74
2022/08/03 06:32:32;;;;;;;17.42;3.75;;;25.20;63.50;;;;;;5036173;28;20025;-74
2022/08/03 06:34:58;;;;;;;8.93;2.83;;;25.20;63.70;;;;;;5051473;28;20013;-74
2022/08/03 06:37:25;;;;;;;11.45;2.20;;;25.20;63.80;;;;;;5050261;28;20108;-75
2022/08/03 06:39:51;;;;;;;10.45;2.00;;;25.20;63.90;;;;;;5051414;28;20067;-75
2022/08/03 06:42:17;;;;;;;6.82;1.80;;;25.20;64.00;;;;;;5052868;28;20507;-74
2022/08/03 06:44:42;;;;;;;7.60;2.17;;;25.20;64.00;;;;;;5052193;28;20480;-74
2022/08/03 06:47:08;;;;;;;7.20;1.73;;;25.20;63.90;;;;;;5051774;28;20068;-74
2022/08/03 06:49:34;;;;;;;9.18;2.30;;;25.10;63.80;;;;;;5052884;28;20032;-74
2022/08/03 06:51:59;;;;;;;6.18;1.85;;;25.20;63.80;;;;;;5052988;28;20028;-74
2022/08/03 06:54:25;;;;;;;7.47;2.00;;;25.20;63.70;;;;;;5033899;28;20034;-74
2022/08/03 06:56:51;;;;;;;13.50;2.45;;;25.20;63.70;;;;;;5033082;28;20025;-74
2022/08/03 06:59:16;;;;;;;11.88;2.50;;;25.10;63.60;;;;;;5031444;28;20033;-74
2022/08/03 07:01:42;;;;;;;3.85;1.70;;;25.10;63.60;;;;;;5032673;28;20055;-74
2022/08/03 07:04:08;;;;;;;8.93;2.63;;;25.10;63.60;;;;;;5032906;28;20018;-74
2022/08/03 07:06:33;;;;;;;9.90;2.33;;;25.10;63.60;;;;;;5032706;28;20036;-74
2022/08/03 07:08:59;;;;;;;7.18;2.28;;;25.10;63.50;;;;;;5032376;28;20013;-74
2022/08/03 07:11:25;;;;;;;5.88;2.05;;;25.10;63.60;;;;;;5030629;28;20463;-74
2022/08/03 07:13:50;;;;;;;8.27;2.00;;;25.10;63.50;;;;;;5032351;28;20105;-74
2022/08/03 07:16:16;;;;;;;7.63;2.08;;;25.10;63.50;;;;;;5032568;28;20480;-74
2022/08/03 07:18:41;;;;;;;7.55;2.05;;;25.10;63.50;;;;;;5032452;28;20036;-74
2022/08/03 07:21:09;;;;;;;9.48;2.33;;;25.10;63.50;;;;;;5031444;28;20040;-74
2022/08/03 07:23:35;;;;;;;11.18;2.53;;;25.10;63.50;;;;;;5032566;28;20522;-74
2022/08/03 07:26:01;;;;;;;11.00;2.30;;;25.10;63.80;;;;;;5032364;28;20064;-74
2022/08/03 07:28:26;;;;;;;7.50;2.38;;;25.10;63.50;;;;;;5014677;28;20555;-74
2022/08/03 07:30:52;;;;;;;8.52;2.50;;;25.10;63.50;;;;;;5012733;28;20026;-74
2022/08/03 07:33:18;;;;;;;9.57;2.47;;;25.10;63.50;;;;;;5012581;28;20026;-74
2022/08/03 07:35:44;;;;;;;11.23;2.42;;;25.10;63.50;;;;;;5015173;28;20022;-74
2022/08/03 07:38:09;;;;;;;6.10;2.28;;;25.10;63.50;;;;;;5018173;28;20022;-74
2022/08/03 07:40:35;;;;;;;7.03;2.80;;;25.10;63.60;;;;;;5019042;28;20021;-74
2022/08/03 07:43:02;;;;;;;9.25;2.50;;;25.10;63.60;;;;;;5019083;28;20037;-74
2022/08/03 07:45:28;;;;;;;7.82;2.28;;;25.00;63.50;;;;;;5017917;28;20477;-74
2022/08/03 07:47:54;;;;;;;9.02;2.28;;;25.00;63.60;;;;;;5019063;28;20530;-74
2022/08/03 07:50:20;;;;;;;9.80;2.75;;;25.10;63.50;;;;;;5019141;28;20061;-74
2022/08/03 07:52:49;;;;;;;7.07;2.70;;;25.00;63.50;;;;;;5017889;28;20037;-74
2022/08/03 07:55:15;;;;;;;5.68;2.40;;;25.00;63.60;;;;;;5032763;28;20072;-74
2022/08/03 07:57:41;;;;;;;8.63;2.30;;;25.00;63.40;;;;;;5037278;28;20577;-74
2022/08/03 08:00:12;;;;;;;6.68;2.33;;;25.00;63.50;;;;;;5038839;28;20017;-74
2022/08/03 08:02:38;;;;;;;5.60;2.38;;;25.00;63.50;;;;;;5021142;28;20029;-74
2022/08/03 08:05:04;;;;;;;6.40;2.33;;;25.00;63.50;;;;;;5017863;28;20029;-74
2022/08/03 08:07:29;;;;;;;6.07;2.30;;;25.00;63.50;;;;;;5018837;28;20022;-74
2022/08/03 08:09:55;;;;;;;5.35;2.03;;;25.00;63.60;;;;;;5018865;28;20511;-74
2022/08/03 08:12:21;;;;;;;8.20;2.30;;;25.00;63.50;;;;;;5018704;28;20510;-74
2022/08/03 08:14:46;;;;;;;4.80;2.13;;;25.00;63.60;;;;;;5018823;28;20029;-74
2022/08/03 08:17:13;;;;;;;7.60;2.03;;;25.00;63.60;;;;;;5018990;28;20033;-74
2022/08/03 08:19:38;;;;;;;5.50;2.10;;;25.00;63.60;;;;;;5017575;28;20022;-74
2022/08/03 08:22:05;;;;;;;5.82;1.88;;;25.00;63.50;;;;;;5018811;28;20542;-74
2022/08/03 08:24:32;;;;;;;7.18;2.83;;;25.00;63.50;;;;;;5017517;28;20060;-74
2022/08/03 08:26:58;;;;;;;7.53;2.60;;;25.00;63.60;;;;;;5017236;28;20021;-74
2022/08/03 08:29:24;;;;;;;6.30;2.40;;;25.00;63.60;;;;;;5018560;28;20041;-74
2022/08/03 08:31:50;;;;;;;7.30;2.45;;;24.90;63.60;;;;;;5017433;28;20399;-74
2022/08/03 08:34:15;;;;;;;5.53;2.30;;;24.90;63.50;;;;;;5018687;28;20033;-74
2022/08/03 08:36:41;;;;;;;5.70;2.15;;;25.00;63.60;;;;;;5017312;28;20026;-74
2022/08/03 08:39:07;;;;;;;4.60;2.17;;;24.90;63.50;;;;;;5018632;28;20075;-74
2022/08/03 08:41:33;;;;;;;3.72;2.20;;;24.90;63.50;;;;;;5018448;28;20071;-74
2022/08/03 08:43:59;;;;;;;7.15;2.08;;;24.90;63.60;;;;;;5017441;28;20033;-74
2022/08/03 08:46:25;;;;;;;4.30;1.80;;;24.90;63.60;;;;;;5017209;28;20026;-74
2022/08/03 08:48:52;;;;;;;4.10;2.00;;;24.90;63.50;;;;;;5013634;28;20030;-74
2022/08/03 08:51:18;;;;;;;7.75;1.85;;;24.90;63.60;;;;;;5014171;28;20156;-74
2022/08/03 08:53:46;;;;;;;6.03;2.05;;;24.90;63.60;;;;;;5016921;28;20141;-74
2022/08/03 08:56:16;;;;;;;6.03;2.15;;;24.90;63.60;;;;;;5035094;28;20021;-74
2022/08/03 08:58:52;;;;;;;6.38;2.20;;;24.90;63.60;;;;;;5033918;28;20022;-74
2022/08/03 09:01:19;;;;;;;6.68;2.30;;;24.90;63.50;;;;;;5028237;28;20406;-74
2022/08/03 09:03:45;;;;;;;3.42;1.90;;;24.90;63.60;;;;;;5013992;28;20030;-74
2022/08/03 09:06:10;;;;;;;5.00;1.92;;;24.90;64.60;;;;;;5015351;28;20515;-74
2022/08/03 09:08:36;;;;;;;7.20;2.42;;;24.90;63.50;;;;;;5014938;28;20038;-74
2022/08/03 09:11:02;;;;;;;3.20;1.70;;;24.90;63.60;;;;;;5014913;28;20032;-74
2022/08/03 09:13:29;;;;;;;5.70;2.13;;;24.90;63.50;;;;;;5014995;28;20036;-74
2022/08/03 09:16:10;;;;;;;5.35;2.28;;;24.90;63.60;;;;;;5014906;28;20048;-74
2022/08/03 09:18:36;;;;;;;5.10;2.20;;;24.90;63.50;;;;;;5014738;28;20021;-74
2022/08/03 09:21:17;;;;;;;3.78;1.90;;;24.90;63.50;;;;;;5013686;28;20044;-74
2022/08/03 09:23:47;;;;;;;4.75;1.63;;;24.90;63.50;;;;;;5014883;28;20061;-74
2022/08/03 09:26:19;;;;;;;3.42;2.10;;;24.90;63.50;;;;;;5013588;28;20555;-74
2022/08/03 09:28:45;;;;;;;4.90;1.95;;;24.90;63.50;;;;;;5013401;28;20051;-74
2022/08/03 09:31:11;;;;;;;5.50;2.25;;;24.90;63.50;;;;;;5013512;28;20034;-74
2022/08/03 09:33:46;;;;;;;5.13;2.13;;;24.90;63.50;;;;;;5013359;28;20443;-74
2022/08/03 09:36:36;;;;;;;2.83;1.70;;;24.90;63.50;;;;;;5013410;28;20034;-74
2022/08/03 09:39:06;;;;;;;5.65;2.10;;;24.90;63.40;;;;;;5013294;28;20105;-74
2022/08/03 09:41:32;;;;;;;4.53;1.92;;;24.90;63.50;;;;;;5013412;28;20057;-74
2022/08/03 09:43:58;;;;;;;4.43;1.73;;;24.90;63.50;;;;;;5014307;28;20032;-74
2022/08/03 09:46:24;;;;;;;4.38;2.10;;;24.90;63.50;;;;;;5013152;28;20112;-74
2022/08/03 09:48:49;;;;;;;4.38;1.90;;;24.90;63.50;;;;;;5013183;28;20025;-74
2022/08/03 09:51:17;;;;;;;3.47;1.50;;;24.90;63.50;;;;;;5014207;28;20033;-74
2022/08/03 09:53:43;;;;;;;5.40;1.92;;;24.90;63.50;;;;;;5014386;28;20022;-74
2022/08/03 09:56:09;;;;;;;5.28;2.22;;;24.90;63.50;;;;;;5033997;28;20032;-74
2022/08/03 09:58:45;;;;;;;4.63;2.20;;;24.90;63.50;;;;;;5031918;28;20100;-74
2022/08/03 10:01:11;;;;;;;5.78;1.90;;;24.90;63.50;;;;;;5027975;28;20026;-74
2022/08/03 10:03:38;;;;;;;5.28;2.08;;;24.90;63.50;;;;;;5014232;28;20026;-74
2022/08/03 10:06:21;;;;;;;5.47;1.80;;;24.90;63.50;;;;;;5012990;28;20026;-74
2022/08/03 10:08:48;;;;;;;4.95;2.03;;;24.90;63.50;;;;;;5013808;28;20037;-74
2022/08/03 10:11:28;;;;;;;2.65;1.58;;;24.80;63.50;;;;;;5012696;28;20567;-74
2022/08/03 10:13:54;;;;;;;4.25;1.50;;;24.90;63.50;;;;;;5012513;28;20028;-74
2022/08/03 10:16:20;;;;;;;6.45;1.90;;;24.80;63.50;;;;;;5012775;28;20435;-74
2022/08/03 10:18:45;;;;;;;3.92;1.70;;;24.80;63.50;;;;;;5013742;28;20068;-74
2022/08/03 10:21:11;;;;;;;3.15;1.58;;;24.90;63.50;;;;;;5013849;28;20034;-74
2022/08/03 10:23:37;;;;;;;3.55;1.65;;;24.90;63.60;;;;;;5013493;28;20025;-74
2022/08/03 10:26:03;;;;;;;2.70;1.60;;;24.90;63.50;;;;;;5012447;28;20492;-74
2022/08/03 10:28:38;;;;;;;5.18;2.08;;;24.90;63.50;;;;;;5012226;28;20527;-74
2022/08/03 10:31:06;;;;;;;3.17;1.67;;;24.80;63.50;;;;;;5012429;28;20026;-74
2022/08/03 10:33:33;;;;;;;3.70;1.95;;;24.80;63.40;;;;;;5012511;28;20059;-74
2022/08/03 10:35:59;;;;;;;2.85;1.90;;;24.90;63.50;;;;;;5012255;28;20128;-74
2022/08/03 10:38:45;;;;;;;4.55;1.52;;;24.80;64.50;;;;;;5012164;28;20108;-74
2022/08/03 10:41:11;;;;;;;3.65;1.70;;;24.80;63.50;;;;;;5013324;28;20496;-74
2022/08/03 10:44:03;;;;;;;3.40;1.80;;;24.80;63.50;;;;;;5012317;28;20041;-74
2022/08/03 10:46:29;;;;;;;3.08;1.55;;;24.80;63.50;;;;;;5013367;28;20531;-75
2022/08/03 10:48:55;;;;;;;2.58;1.50;;;24.80;63.50;;;;;;5013256;28;20026;-75
2022/08/03 10:51:20;;;;;;;3.30;1.65;;;24.80;63.50;;;;;;5011643;28;20029;-75
2022/08/03 10:53:47;;;;;;;19.90;6.97;;;24.80;63.50;;;;;;5013707;28;20022;-76
2022/08/03 10:59:44;;;;;;;98.88;25.58;;;24.80;63.70;;;;;;5009874;28;20543;-73
2022/08/03 11:02:11;;;;;;;125.97;29.35;;;24.80;63.80;;;;;;5010756;28;20037;-73
2022/08/03 11:04:37;;;;;;;146.35;38.55;;;24.80;64.10;;;;;;5010714;28;20025;-74
2022/08/03 11:07:14;;;;;;;144.95;38.33;;;24.80;64.20;;;;;;4994111;28;20107;-73
2022/08/03 11:09:41;;;;;;;131.10;35.03;;;24.80;64.20;;;;;;5010232;28;20034;-73
2022/08/03 11:12:19;;;;;;;123.93;34.13;;;24.80;64.30;;;;;;5012325;28;20124;-73
2022/08/03 11:14:47;;;;;;;121.25;34.63;;;24.80;64.20;;;;;;5007072;28;20065;-75
2022/08/03 11:17:12;;;;;;;123.47;33.95;;;24.80;64.30;;;;;;4992968;28;20064;-74
2022/08/03 11:19:48;;;;;;;108.60;32.22;;;24.80;64.30;;;;;;4991216;28;20025;-74
2022/08/03 11:22:14;;;;;;;113.22;30.73;;;24.80;64.40;;;;;;5007551;28;20034;-75
2022/08/03 11:24:40;;;;;;;103.07;30.00;;;24.80;64.30;;;;;;4976279;28;20444;-74
2022/08/03 11:27:14;;;;;;;117.50;31.55;;;24.80;64.30;;;;;;5007981;28;20068;-74
2022/08/03 11:30:08;;;;;;;97.80;29.17;;;24.80;64.20;;;;;;5007411;28;20057;-74
2022/08/03 11:32:38;;;;;;;95.68;28.20;;;24.80;64.20;;;;;;5017623;28;20515;-73
2022/08/03 11:35:11;;;;;;;94.30;29.17;;;24.80;64.20;;;;;;5043439;28;20507;-74
2022/08/03 11:38:07;;;;;;;92.60;28.08;;;24.80;64.20;;;;;;5051236;28;20025;-73
2022/08/03 11:40:45;;;;;;;78.75;26.38;;;24.80;64.20;;;;;;5052243;28;20017;-73
2022/08/03 11:43:28;;;;;;;92.28;26.30;;;24.90;64.20;;;;;;5052029;28;20028;-73
2022/08/03 11:46:04;;;;;;;88.75;27.30;;;24.90;64.20;;;;;;5052174;28;20017;-73
2022/08/03 11:48:32;;;;;;;84.13;26.02;;;24.80;64.10;;;;;;5050939;28;20021;-73
2022/08/03 11:51:02;;;;;;;89.88;26.88;;;24.80;64.10;;;;;;5051838;28;20021;-73
2022/08/03 11:53:27;;;;;;;94.13;26.17;;;24.80;64.20;;;;;;5034768;28;20551;-73
2022/08/03 11:55:54;;;;;;;84.32;27.05;;;24.80;64.10;;;;;;5031304;28;20105;-73
2022/08/03 11:58:21;;;;;;;84.18;25.33;;;24.80;64.10;;;;;;5030898;28;20029;-73
2022/08/03 12:00:47;;;;;;;82.80;25.65;;;24.80;64.10;;;;;;5029718;28;20491;-73
2022/08/03 12:03:14;;;;;;;75.70;25.23;;;24.80;64.10;;;;;;5011201;28;20044;-73
2022/08/03 12:05:51;;;;;;;85.32;26.58;;;24.80;64.10;;;;;;5011162;28;20097;-73
2022/08/03 12:08:27;;;;;;;81.82;25.83;;;24.80;64.10;;;;;;5012483;28;20026;-73
2022/08/03 12:10:55;;;;;;;76.57;23.45;;;24.80;64.20;;;;;;5012485;28;20073;-73
2022/08/03 12:13:21;;;;;;;75.80;24.10;;;24.90;64.20;;;;;;5011078;28;20400;-73
2022/08/03 12:15:57;;;;;;;81.47;24.90;;;24.80;64.10;;;;;;5011158;28;20022;-73
2022/08/03 12:18:23;;;;;;;69.38;23.08;;;24.80;64.20;;;;;;5010974;28;20388;-74
2022/08/03 12:20:51;;;;;;;70.13;22.90;;;24.80;64.10;;;;;;5011078;28;20022;-73
2022/08/03 12:23:17;;;;;;;69.70;23.98;;;24.80;64.10;;;;;;5014359;28;20037;-73
2022/08/03 12:25:43;;;;;;;74.35;23.42;;;24.90;64.20;;;;;;5014685;28;20030;-73
2022/08/03 12:28:18;;;;;;;69.70;21.95;;;24.80;64.10;;;;;;5014389;28;20048;-73
2022/08/03 12:30:46;;;;;;;73.30;24.50;;;24.90;64.20;;;;;;5014872;28;20021;-73
2022/08/03 12:33:24;;;;;;;68.15;22.95;;;24.80;64.10;;;;;;5014373;28;20026;-73
2022/08/03 12:36:03;;;;;;;69.75;23.13;;;24.80;64.20;;;;;;5014499;28;20076;-73
2022/08/03 12:38:29;;;;;;;71.32;22.63;;;24.80;64.10;;;;;;5014795;28;20033;-73
2022/08/03 12:40:59;;;;;;;61.75;22.17;;;24.80;64.10;;;;;;5014789;28;20025;-73
2022/08/03 12:43:25;;;;;;;62.85;22.75;;;24.90;64.20;;;;;;5014415;28;20032;-73
2022/08/03 12:45:50;;;;;;;63.25;21.67;;;24.90;64.20;;;;;;5014510;28;20022;-73
2022/08/03 12:48:16;;;;;;;70.68;22.92;;;24.80;64.20;;;;;;5014164;28;20030;-74
2022/08/03 12:50:42;;;;;;;56.08;20.30;;;24.90;64.20;;;;;;5015563;28;20025;-73
2022/08/03 12:53:08;;;;;;;62.70;20.85;;;24.90;64.20;;;;;;5015306;28;20084;-73
2022/08/03 12:55:34;;;;;;;60.72;20.33;;;24.90;64.20;;;;;;5030792;28;20072;-73
2022/08/03 12:58:01;;;;;;;59.72;21.13;;;24.90;64.20;;;;;;5034972;28;20022;-73